LEMD

Adolfo Suárez Madrid–Barajas Airport

Madrid, Spain
TAF LEMD 161700Z 1618/1724 01008KT 9999 FEW045 TX35/1715Z TN16/1705Z TEMPO 1710/1718 VRB05KT BECMG 1718/1720 35008KT
Issued Valid From Valid To
Jul-16 @ 17:00 UTC
(3 hours ago)
Jul-16 @ 18:00 UTC
(2 hours ago)
Jul-18 @ 00:00 UTC
(-1 days ago)
Jul-16 @ 18:00 to Jul-17 @ 18:00
TAF LEMD 161700Z 1618/1724 01008KT 9999 FEW045 TX35/1715Z TN16/1705Z
Wind Visibility Clouds
10° at 8 knots 10,000+ meters
  • Few at 4,500' AGL
Temporary Jul-17 @ 10:00 to Jul-17 @ 18:00
TEMPO 1710/1718 VRB05KT
Wind
Variable at 5 knots
Becoming Jul-17 @ 18:00 to Jul-18 @ 00:00
BECMG 1718/1720 35008KT
Wind Visibility Clouds
350° at 8 knots 10,000+ meters
  • Few at 4,500' AGL
TAF LEMD 161700Z 1618/1724 01008KT 9999 FEW045 TX35/1715Z TN16/1705Z TEMPO 1710/1718 VRB05KT BECMG 1718/1720 35008KT
Issued Jul-16 @ 17:00 UTC
(3 hours ago)
Valid From Jul-16 @ 18:00 UTC
(2 hours ago)
Valid To Jul-18 @ 00:00 UTC
(-1 days ago)
Jul-16 @ 18:00 - Jul-17 @ 18:00
Wind Visibility
10° at 8 knots 10,000+ meters
Clouds
  • Few at 4,500' AGL
Temporary Jul-17 @ 10:00 - Jul-17 @ 18:00
Wind
Variable at 5 knots
Becoming Jul-17 @ 18:00 - Jul-18 @ 00:00
Wind Visibility
350° at 8 knots 10,000+ meters
Clouds
  • Few at 4,500' AGL